Time;durP1;ratioP1;P1;durP2;ratioP2;P2;SDS_P1;SDS_P2;PMS_P1;PMS_P2;Temp;Humidity;BMP_temperature;BMP_pressure;BME280_temperature;BME280_humidity;BME280_pressure;Samples;Min_cycle;Max_cycle;Signal;HPM_P1;HPM_P2
2023/12/20 00:01:12;;;;;;;20.90;4.20;;;;;;;;;;5051797;28;20124;-96
2023/12/20 00:03:52;;;;;;;19.70;4.25;;;;;;;;;;5132800;23;20069;-96
2023/12/20 00:06:21;;;;;;;19.70;4.00;;;;;;;;;;4983567;28;20220;-96
2023/12/20 00:09:01;;;;;;;25.42;4.30;;;;;;;;;;4998488;28;20046;-95
2023/12/20 00:21:52;;;;;;;21.08;3.80;;;;;;;;;;4993368;28;20038;-96
2023/12/20 00:24:33;;;;;;;17.23;3.17;;;;;;;;;;4945538;28;20040;-96
2023/12/20 00:27:31;;;;;;;19.95;3.72;;;;;;;;;;4930987;29;20071;-96
2023/12/20 00:30:14;;;;;;;17.08;2.95;;;;;;;;;;4937197;29;20572;-96
2023/12/20 00:37:50;;;;;;;22.27;3.03;;;;;;;;;;4972009;28;20149;-96
2023/12/20 00:43:07;;;;;;;25.23;3.40;;;;;;;;;;5004514;28;20037;-95
2023/12/20 00:48:45;;;;;;;19.33;2.43;;;;;;;;;;5005398;28;20345;-96
2023/12/20 01:11:14;;;;;;;15.18;2.15;;;;;;;;;;5151916;23;20058;-96
2023/12/20 01:16:21;;;;;;;27.88;2.55;;;;;;;;;;5299536;23;20057;-95
2023/12/20 01:24:46;;;;;;;24.40;2.22;;;;;;;;;;4966472;28;20472;-96
2023/12/20 01:27:32;;;;;;;;;;;;;;;;;;;;;
2023/12/20 01:30:29;;;;;;;22.08;2.85;;;;;;;;;;4961389;28;20031;-96
2023/12/20 01:38:50;;;;;;;21.30;2.30;;;;;;;;;;5011023;28;20028;-95
2023/12/20 01:41:31;;;;;;;18.13;2.03;;;;;;;;;;4962948;29;20041;-96
2023/12/20 01:43:57;;;;;;;18.15;2.53;;;;;;;;;;5115913;23;20077;-96
2023/12/20 01:46:54;;;;;;;27.00;2.58;;;;;;;;;;5032104;28;20198;-95
2023/12/20 01:49:25;;;;;;;21.83;2.20;;;;;;;;;;5013377;28;20026;-96
2023/12/20 02:00:17;;;;;;;16.27;1.98;;;;;;;;;;5040426;28;20046;-96
2023/12/20 02:05:57;;;;;;;;;;;;;;;;;;;;;
2023/12/20 02:08:33;;;;;;;22.40;3.10;;;;;;;;;;5002564;28;20030;-96
2023/12/20 02:11:11;;;;;;;21.83;2.90;;;;;;;;;;4972722;28;20041;-96
2023/12/20 02:13:38;;;;;;;17.08;2.80;;;;;;;;;;5038188;28;20021;-95
2023/12/20 02:16:15;;;;;;;16.88;2.65;;;;;;;;;;5041926;28;20052;-96
2023/12/20 02:18:54;;;;;;;30.60;3.42;;;;;;;;;;5039542;28;20352;-95
2023/12/20 02:21:35;;;;;;;19.73;2.85;;;;;;;;;;5023885;28;20025;-96
2023/12/20 02:24:01;;;;;;;27.33;3.13;;;;;;;;;;5024903;28;20025;-95
2023/12/20 02:26:32;;;;;;;23.07;3.00;;;;;;;;;;5025546;28;20276;-96
2023/12/20 02:29:04;;;;;;;21.33;3.35;;;;;;;;;;5035325;28;20028;-96
2023/12/20 02:31:29;;;;;;;28.58;2.70;;;;;;;;;;5036247;28;20025;-95
2023/12/20 02:34:01;;;;;;;32.67;3.30;;;;;;;;;;5040423;28;20495;-96
2023/12/20 02:36:29;;;;;;;24.17;3.38;;;;;;;;;;5054466;28;20002;-96
2023/12/20 02:39:01;;;;;;;18.55;2.67;;;;;;;;;;5037619;28;20056;-95
2023/12/20 02:41:26;;;;;;;24.88;3.67;;;;;;;;;;5013663;28;20018;-96
2023/12/20 02:44:07;;;;;;;32.37;3.40;;;;;;;;;;5014811;28;20037;-96
2023/12/20 02:46:32;;;;;;;21.80;3.20;;;;;;;;;;5009291;28;20025;-95
2023/12/20 02:49:12;;;;;;;27.57;3.70;;;;;;;;;;5026330;28;20029;-96
2023/12/20 02:51:40;;;;;;;29.52;3.58;;;;;;;;;;5021028;28;20025;-96
2023/12/20 02:54:07;;;;;;;30.43;3.73;;;;;;;;;;5020195;28;20504;-96
2023/12/20 02:56:32;;;;;;;17.70;3.35;;;;;;;;;;5003138;28;20030;-96
2023/12/20 02:59:09;;;;;;;34.80;3.55;;;;;;;;;;5021600;28;20030;-96
2023/12/20 03:01:35;;;;;;;23.58;3.67;;;;;;;;;;5030845;28;20028;-96
2023/12/20 03:04:03;;;;;;;25.83;3.13;;;;;;;;;;5041317;28;20026;-96
2023/12/20 03:06:35;;;;;;;29.10;3.57;;;;;;;;;;5010414;28;20060;-96
2023/12/20 03:09:00;;;;;;;22.27;3.77;;;;;;;;;;5018591;28;20288;-94
2023/12/20 03:11:28;;;;;;;26.25;3.47;;;;;;;;;;5022910;28;20029;-94
2023/12/20 03:13:56;;;;;;;30.80;3.80;;;;;;;;;;5038486;28;20113;-95
2023/12/20 03:16:28;;;;;;;32.70;4.30;;;;;;;;;;5021002;28;20033;-95
2023/12/20 03:18:53;;;;;;;28.10;3.47;;;;;;;;;;5038598;28;20081;-95
2023/12/20 03:21:19;;;;;;;27.90;3.53;;;;;;;;;;5023477;28;20028;-95
2023/12/20 03:23:53;;;;;;;31.70;3.97;;;;;;;;;;5022781;28;20017;-95
2023/12/20 03:26:19;;;;;;;29.40;3.55;;;;;;;;;;5038267;28;20104;-95
2023/12/20 03:28:48;;;;;;;26.70;3.53;;;;;;;;;;5012514;28;20049;-95
2023/12/20 03:31:13;;;;;;;28.27;3.92;;;;;;;;;;5021919;28;20033;-95
2023/12/20 03:33:38;;;;;;;33.43;3.90;;;;;;;;;;5022648;28;20105;-96
2023/12/20 03:36:04;;;;;;;22.43;3.70;;;;;;;;;;5022445;28;20022;-94
2023/12/20 03:38:29;;;;;;;24.35;3.45;;;;;;;;;;5041918;28;20025;-94
2023/12/20 03:40:54;;;;;;;39.23;3.83;;;;;;;;;;5014014;28;20022;-95
2023/12/20 03:43:19;;;;;;;30.30;4.37;;;;;;;;;;5028029;28;20022;-95
2023/12/20 03:45:45;;;;;;;34.70;4.00;;;;;;;;;;5018227;28;20075;-94
2023/12/20 03:48:14;;;;;;;31.67;3.70;;;;;;;;;;5015527;28;20025;-95
2023/12/20 03:50:39;;;;;;;26.20;4.07;;;;;;;;;;5020165;28;20443;-95
2023/12/20 03:53:04;;;;;;;30.27;3.63;;;;;;;;;;5020834;28;20063;-94
2023/12/20 03:55:29;;;;;;;31.53;3.90;;;;;;;;;;5037070;28;20292;-94
2023/12/20 03:57:54;;;;;;;27.73;4.37;;;;;;;;;;5019240;28;20022;-93
2023/12/20 04:00:20;;;;;;;32.97;4.30;;;;;;;;;;5025506;28;20034;-93
2023/12/20 04:02:45;;;;;;;28.83;4.23;;;;;;;;;;5020787;28;20442;-93
2023/12/20 04:05:10;;;;;;;35.63;4.97;;;;;;;;;;5015033;28;20060;-93
2023/12/20 04:07:36;;;;;;;31.67;5.10;;;;;;;;;;5038345;28;20018;-94
2023/12/20 04:10:02;;;;;;;32.47;4.50;;;;;;;;;;5036721;28;20021;-93
2023/12/20 04:12:28;;;;;;;22.97;4.33;;;;;;;;;;5019509;28;20024;-94
2023/12/20 04:14:53;;;;;;;30.75;4.20;;;;;;;;;;5020860;28;20037;-94
2023/12/20 04:17:22;;;;;;;27.07;4.23;;;;;;;;;;5005959;28;20492;-94
2023/12/20 04:19:47;;;;;;;28.85;4.93;;;;;;;;;;5008437;28;20010;-94
2023/12/20 04:22:13;;;;;;;38.47;4.97;;;;;;;;;;5057320;28;20086;-94
2023/12/20 04:24:38;;;;;;;31.43;4.80;;;;;;;;;;5041416;28;20021;-94
2023/12/20 04:27:03;;;;;;;29.97;5.27;;;;;;;;;;5048331;28;20021;-94
2023/12/20 04:29:29;;;;;;;39.87;4.97;;;;;;;;;;5037472;28;20022;-94
2023/12/20 04:31:58;;;;;;;41.03;4.93;;;;;;;;;;5020502;28;20018;-94
2023/12/20 04:34:23;;;;;;;25.73;4.70;;;;;;;;;;5012454;28;20057;-93
2023/12/20 04:36:48;;;;;;;23.90;4.60;;;;;;;;;;5009487;28;20466;-95
2023/12/20 04:39:17;;;;;;;30.43;4.87;;;;;;;;;;5017797;28;20026;-95
2023/12/20 04:41:47;;;;;;;34.10;4.60;;;;;;;;;;5031765;28;20030;-95
2023/12/20 04:44:12;;;;;;;32.50;5.28;;;;;;;;;;5025007;28;20029;-95
2023/12/20 04:46:37;;;;;;;47.77;5.67;;;;;;;;;;5006728;28;20087;-95
2023/12/20 04:49:05;;;;;;;32.03;4.40;;;;;;;;;;5007857;28;20119;-93
2023/12/20 04:51:32;;;;;;;26.45;4.43;;;;;;;;;;5022654;28;20113;-94
2023/12/20 04:53:58;;;;;;;28.40;4.43;;;;;;;;;;5040060;28;20017;-93
2023/12/20 04:56:23;;;;;;;32.37;4.80;;;;;;;;;;5022693;28;20029;-92
2023/12/20 04:58:51;;;;;;;33.13;4.77;;;;;;;;;;5018753;28;20072;-93
2023/12/20 05:01:17;;;;;;;32.47;3.90;;;;;;;;;;5019801;28;20026;-94
2023/12/20 05:03:42;;;;;;;33.63;4.15;;;;;;;;;;5020342;28;20049;-94
2023/12/20 05:06:07;;;;;;;36.53;4.37;;;;;;;;;;5029378;28;20096;-94
2023/12/20 05:08:33;;;;;;;27.70;3.83;;;;;;;;;;5040146;28;20535;-94
2023/12/20 05:11:00;;;;;;;32.00;4.20;;;;;;;;;;5040664;28;20096;-92
2023/12/20 05:13:26;;;;;;;27.98;4.05;;;;;;;;;;5047154;28;20023;-94
2023/12/20 05:15:51;;;;;;;27.23;3.87;;;;;;;;;;5035733;28;20042;-94
2023/12/20 05:18:16;;;;;;;25.90;3.73;;;;;;;;;;5021049;28;20017;-94
2023/12/20 05:20:41;;;;;;;33.70;4.20;;;;;;;;;;5022039;28;20113;-93
2023/12/20 05:23:06;;;;;;;29.10;4.73;;;;;;;;;;5025789;28;20113;-93
2023/12/20 05:25:34;;;;;;;33.23;3.83;;;;;;;;;;5002253;28;20041;-93
2023/12/20 05:27:59;;;;;;;28.17;4.15;;;;;;;;;;5001784;28;20018;-93
2023/12/20 05:30:30;;;;;;;30.73;3.97;;;;;;;;;;5021597;28;20389;-93
2023/12/20 05:32:55;;;;;;;31.73;4.40;;;;;;;;;;5019817;28;20022;-94
2023/12/20 05:35:22;;;;;;;36.40;4.10;;;;;;;;;;5018232;28;20524;-94
2023/12/20 05:37:47;;;;;;;24.92;3.28;;;;;;;;;;5003835;28;20012;-94
2023/12/20 05:40:12;;;;;;;36.77;3.83;;;;;;;;;;5021713;28;20029;-93
2023/12/20 05:42:39;;;;;;;40.10;3.93;;;;;;;;;;5039449;28;20108;-94
2023/12/20 05:45:05;;;;;;;40.47;5.35;;;;;;;;;;5019991;28;20105;-94
2023/12/20 05:47:30;;;;;;;33.28;4.47;;;;;;;;;;5001746;28;20053;-93
2023/12/20 05:49:55;;;;;;;38.23;4.13;;;;;;;;;;5019369;28;20032;-93
2023/12/20 05:52:20;;;;;;;35.43;4.30;;;;;;;;;;5002060;28;20037;-93
2023/12/20 05:54:46;;;;;;;26.47;3.63;;;;;;;;;;5028502;28;20088;-94
2023/12/20 05:57:11;;;;;;;33.00;4.07;;;;;;;;;;5021119;28;20461;-94
2023/12/20 05:59:36;;;;;;;36.37;4.10;;;;;;;;;;5020816;28;20044;-93
2023/12/20 06:02:03;;;;;;;27.70;3.70;;;;;;;;;;5023667;28;20629;-96
2023/12/20 06:04:34;;;;;;;35.78;3.80;;;;;;;;;;5030564;28;20033;-95
2023/12/20 06:07:02;;;;;;;31.10;3.45;;;;;;;;;;5023977;28;20052;-96
2023/12/20 06:09:27;;;;;;;30.48;3.47;;;;;;;;;;5027878;28;20018;-93
2023/12/20 06:11:54;;;;;;;32.10;3.77;;;;;;;;;;5041092;28;20026;-96
2023/12/20 06:14:31;;;;;;;26.10;3.70;;;;;;;;;;5030559;28;20128;-96
2023/12/20 06:16:56;;;;;;;29.60;4.13;;;;;;;;;;5023965;28;20759;-96
2023/12/20 06:19:31;;;;;;;27.25;3.78;;;;;;;;;;5021946;28;20041;-91
2023/12/20 06:22:15;;;;;;;;;;;;;;;;;;;;;
2023/12/20 06:24:44;;;;;;;39.53;4.90;;;;;;;;;;5019589;28;20090;-93
2023/12/20 06:27:24;;;;;;;25.87;3.47;;;;;;;;;;5020895;28;20260;-94
2023/12/20 06:29:59;;;;;;;34.95;4.13;;;;;;;;;;5019547;28;20056;-94
2023/12/20 06:35:28;;;;;;;26.42;4.13;;;;;;;;;;5030070;28;20397;-94
2023/12/20 06:37:59;;;;;;;23.83;4.22;;;;;;;;;;5034418;28;20083;-94
2023/12/20 06:40:25;;;;;;;38.17;5.40;;;;;;;;;;5029132;28;20021;-94
2023/12/20 06:43:02;;;;;;;36.90;4.53;;;;;;;;;;5054228;28;20022;-93
2023/12/20 06:45:28;;;;;;;32.42;4.45;;;;;;;;;;5053907;28;20391;-94
2023/12/20 06:47:54;;;;;;;35.90;5.07;;;;;;;;;;5056368;28;20006;-94
2023/12/20 06:50:27;;;;;;;32.42;5.10;;;;;;;;;;5055003;28;20010;-94
2023/12/20 06:52:52;;;;;;;24.75;5.50;;;;;;;;;;5053858;28;20497;-94
2023/12/20 06:55:27;;;;;;;43.27;6.07;;;;;;;;;;5043026;28;20041;-93
2023/12/20 06:57:52;;;;;;;33.92;5.43;;;;;;;;;;5044659;28;20021;-92
2023/12/20 07:00:19;;;;;;;33.57;4.90;;;;;;;;;;5036638;28;20139;-87
2023/12/20 07:02:45;;;;;;;29.95;5.65;;;;;;;;;;5045868;28;20044;-89
2023/12/20 07:05:10;;;;;;;34.23;5.80;;;;;;;;;;5041802;28;20426;-89
2023/12/20 07:07:35;;;;;;;34.50;6.20;;;;;;;;;;5048315;28;20037;-89
2023/12/20 07:10:00;;;;;;;28.40;5.47;;;;;;;;;;5044915;28;20006;-91
2023/12/20 07:12:26;;;;;;;27.97;5.20;;;;;;;;;;5026571;28;20033;-89
2023/12/20 07:14:51;;;;;;;48.60;5.77;;;;;;;;;;5022111;28;20088;-91
2023/12/20 07:17:16;;;;;;;36.33;6.13;;;;;;;;;;5016190;28;20082;-88
2023/12/20 07:19:42;;;;;;;27.67;4.90;;;;;;;;;;5034364;28;20021;-89
2023/12/20 07:22:07;;;;;;;32.40;4.78;;;;;;;;;;5046971;28;20457;-95
2023/12/20 07:24:33;;;;;;;36.20;5.20;;;;;;;;;;5041465;28;20018;-93
2023/12/20 07:26:59;;;;;;;35.43;5.37;;;;;;;;;;5047061;28;20129;-94
2023/12/20 07:29:40;;;;;;;33.42;4.50;;;;;;;;;;5028621;28;20030;-94
2023/12/20 07:32:05;;;;;;;27.02;5.30;;;;;;;;;;5024578;28;20022;-85
2023/12/20 07:34:30;;;;;;;27.90;4.63;;;;;;;;;;5026246;28;20025;-85
2023/12/20 07:36:55;;;;;;;37.17;4.83;;;;;;;;;;5020780;28;20053;-85
2023/12/20 07:39:21;;;;;;;27.97;5.17;;;;;;;;;;5024200;28;20022;-85
2023/12/20 07:41:46;;;;;;;33.90;5.57;;;;;;;;;;5009848;28;20047;-85
2023/12/20 07:44:11;;;;;;;31.00;4.23;;;;;;;;;;5013779;28;20024;-85
2023/12/20 07:46:36;;;;;;;25.30;4.10;;;;;;;;;;5029373;28;20025;-85
2023/12/20 07:49:02;;;;;;;27.83;5.00;;;;;;;;;;5028842;28;20268;-85
2023/12/20 07:51:27;;;;;;;23.77;3.60;;;;;;;;;;5027222;28;20112;-85
2023/12/20 07:53:52;;;;;;;34.63;4.30;;;;;;;;;;5004562;28;20802;-85
2023/12/20 07:56:18;;;;;;;24.83;4.03;;;;;;;;;;5010652;28;20080;-86
2023/12/20 07:58:44;;;;;;;33.40;4.15;;;;;;;;;;5009511;28;20088;-86
2023/12/20 08:01:10;;;;;;;34.33;4.07;;;;;;;;;;5011642;28;20041;-87
2023/12/20 08:03:36;;;;;;;35.30;5.05;;;;;;;;;;5014491;28;20125;-87
2023/12/20 08:06:02;;;;;;;25.57;3.83;;;;;;;;;;5018410;28;20493;-86
2023/12/20 08:08:28;;;;;;;26.40;5.18;;;;;;;;;;5024631;28;20069;-87
2023/12/20 08:10:53;;;;;;;18.17;3.70;;;;;;;;;;5015649;28;20052;-85
2023/12/20 08:15:53;;;;;;;30.85;3.78;;;;;;;;;;4952032;26;20065;-86
2023/12/20 08:18:19;;;;;;;26.40;3.70;;;;;;;;;;4971711;28;20026;-86
2023/12/20 08:20:44;;;;;;;25.07;3.50;;;;;;;;;;4986257;28;20292;-86
2023/12/20 08:23:09;;;;;;;24.80;4.10;;;;;;;;;;4978349;28;20062;-86
2023/12/20 08:25:34;;;;;;;20.60;3.80;;;;;;;;;;4970150;28;20060;-86
2023/12/20 08:28:00;;;;;;;34.40;4.30;;;;;;;;;;4970543;28;20051;-85
2023/12/20 08:30:26;;;;;;;25.27;3.97;;;;;;;;;;4969371;28;20054;-86
2023/12/20 08:32:51;;;;;;;22.03;4.00;;;;;;;;;;4989186;28;20190;-85
2023/12/20 08:35:17;;;;;;;35.10;4.27;;;;;;;;;;4988338;28;20045;-86
2023/12/20 08:37:42;;;;;;;24.58;3.80;;;;;;;;;;4988857;28;20025;-86
2023/12/20 08:40:25;;;;;;;25.10;4.03;;;;;;;;;;4989743;28;20386;-87
2023/12/20 08:42:50;;;;;;;27.67;4.00;;;;;;;;;;4988751;28;20018;-86
2023/12/20 08:45:16;;;;;;;28.47;4.70;;;;;;;;;;4989741;28;20461;-88
2023/12/20 08:47:41;;;;;;;20.33;3.83;;;;;;;;;;4990340;28;20493;-87
2023/12/20 08:50:06;;;;;;;25.73;3.93;;;;;;;;;;4987884;28;20525;-88
2023/12/20 08:52:32;;;;;;;23.53;4.10;;;;;;;;;;4987633;28;20501;-88
2023/12/20 08:54:57;;;;;;;22.83;3.43;;;;;;;;;;4982917;28;20598;-86
2023/12/20 08:57:23;;;;;;;26.30;3.27;;;;;;;;;;4989664;28;20029;-86
2023/12/20 08:59:49;;;;;;;29.70;3.97;;;;;;;;;;4987219;28;20026;-87
2023/12/20 09:02:15;;;;;;;31.35;4.10;;;;;;;;;;4989048;28;20026;-86
2023/12/20 09:04:40;;;;;;;31.80;3.77;;;;;;;;;;4993646;28;20023;-87
2023/12/20 09:07:05;;;;;;;26.53;3.73;;;;;;;;;;5007267;28;20096;-86
2023/12/20 09:09:32;;;;;;;20.23;3.37;;;;;;;;;;4993735;28;20021;-86
2023/12/20 09:11:57;;;;;;;18.50;3.60;;;;;;;;;;4992055;28;20281;-86
2023/12/20 09:14:22;;;;;;;27.60;3.78;;;;;;;;;;4993153;28;20038;-86
2023/12/20 09:16:47;;;;;;;25.60;3.80;;;;;;;;;;4992851;28;20795;-86
2023/12/20 09:19:12;;;;;;;21.23;3.63;;;;;;;;;;4993211;28;20045;-86
2023/12/20 09:21:38;;;;;;;31.23;4.00;;;;;;;;;;4992013;28;20447;-86
2023/12/20 09:24:03;;;;;;;23.63;3.63;;;;;;;;;;4992889;28;20053;-87
2023/12/20 09:26:28;;;;;;;20.20;3.50;;;;;;;;;;4993040;28;20422;-87
2023/12/20 09:28:54;;;;;;;23.67;4.00;;;;;;;;;;4991285;28;20023;-86
2023/12/20 09:31:19;;;;;;;24.83;4.20;;;;;;;;;;4991124;28;20088;-92
2023/12/20 09:33:45;;;;;;;27.00;3.87;;;;;;;;;;4993609;28;20642;-91
2023/12/20 09:36:10;;;;;;;26.45;4.10;;;;;;;;;;4994160;28;20025;-93
2023/12/20 09:38:35;;;;;;;28.27;4.00;;;;;;;;;;4990033;28;20022;-91
2023/12/20 09:41:04;;;;;;;29.30;3.60;;;;;;;;;;5108441;23;20068;-91
2023/12/20 09:43:44;;;;;;;25.27;3.90;;;;;;;;;;5068393;22;20044;-93
2023/12/20 09:48:56;;;;;;;14.67;3.43;;;;;;;;;;5036606;28;20520;-93
2023/12/20 09:51:31;;;;;;;20.58;3.55;;;;;;;;;;5056248;28;20104;-93
2023/12/20 09:53:58;;;;;;;27.45;3.83;;;;;;;;;;5038932;28;20034;-93
2023/12/20 09:56:24;;;;;;;23.05;3.65;;;;;;;;;;5040153;28;20025;-94
2023/12/20 09:58:50;;;;;;;20.63;3.22;;;;;;;;;;5032647;28;20466;-95
2023/12/20 10:01:21;;;;;;;27.83;3.40;;;;;;;;;;5040275;28;20026;-94
2023/12/20 10:03:47;;;;;;;20.10;3.60;;;;;;;;;;5026228;28;20040;-92
2023/12/20 10:06:12;;;;;;;23.70;3.43;;;;;;;;;;5033677;28;20013;-90
2023/12/20 10:08:39;;;;;;;22.07;3.40;;;;;;;;;;5035939;28;20091;-90
2023/12/20 10:11:04;;;;;;;24.10;3.90;;;;;;;;;;5030294;28;20040;-89
2023/12/20 10:16:04;;;;;;;19.30;3.15;;;;;;;;;;4984427;28;19996;-89
2023/12/20 10:18:29;;;;;;;18.70;3.27;;;;;;;;;;4991446;28;20486;-88
2023/12/20 10:20:55;;;;;;;19.50;3.28;;;;;;;;;;4986280;28;20018;-88
2023/12/20 10:23:20;;;;;;;23.53;2.60;;;;;;;;;;4973222;28;20155;-88
2023/12/20 10:25:55;;;;;;;18.43;2.67;;;;;;;;;;4972602;28;20062;-88
2023/12/20 10:28:23;;;;;;;15.05;2.70;;;;;;;;;;4963158;28;20065;-88
2023/12/20 10:30:48;;;;;;;26.83;3.03;;;;;;;;;;4972669;28;20034;-88
2023/12/20 10:33:13;;;;;;;28.43;3.37;;;;;;;;;;5043673;23;20044;-89
2023/12/20 10:35:41;;;;;;;24.97;3.17;;;;;;;;;;5031428;28;20017;-89
2023/12/20 10:38:06;;;;;;;15.77;2.58;;;;;;;;;;5029822;28;20551;-87
2023/12/20 10:40:36;;;;;;;26.83;3.10;;;;;;;;;;5033224;28;20029;-88
2023/12/20 10:43:02;;;;;;;19.77;3.30;;;;;;;;;;5024130;28;20024;-89
2023/12/20 10:45:29;;;;;;;21.63;2.60;;;;;;;;;;5014490;28;20068;-88
2023/12/20 10:47:54;;;;;;;19.63;3.13;;;;;;;;;;5035278;28;20032;-88
2023/12/20 10:50:20;;;;;;;18.35;2.45;;;;;;;;;;5039883;28;20472;-89
2023/12/20 10:52:46;;;;;;;19.87;3.20;;;;;;;;;;5026474;28;20025;-90
2023/12/20 10:55:11;;;;;;;27.83;2.90;;;;;;;;;;5022109;28;20327;-89
2023/12/20 10:57:38;;;;;;;28.95;3.53;;;;;;;;;;5025720;28;20469;-88
2023/12/20 11:00:05;;;;;;;29.42;3.20;;;;;;;;;;5013355;28;20095;-88
2023/12/20 11:02:32;;;;;;;22.90;3.13;;;;;;;;;;5034791;28;20021;-88
2023/12/20 11:05:08;;;;;;;15.17;2.60;;;;;;;;;;5039944;28;20264;-88
2023/12/20 11:07:35;;;;;;;22.95;3.83;;;;;;;;;;5017061;28;20107;-89
2023/12/20 11:10:10;;;;;;;15.20;2.80;;;;;;;;;;5011164;28;20122;-87
2023/12/20 11:12:42;;;;;;;17.05;3.35;;;;;;;;;;5157215;22;20050;-88
2023/12/20 11:15:08;;;;;;;25.63;3.22;;;;;;;;;;5010950;28;20473;-89
2023/12/20 11:17:33;;;;;;;20.40;2.60;;;;;;;;;;4994967;28;20041;-89
2023/12/20 11:19:59;;;;;;;18.57;3.00;;;;;;;;;;5010331;28;20104;-88
2023/12/20 11:22:24;;;;;;;19.35;2.65;;;;;;;;;;5001539;28;20470;-88
2023/12/20 11:24:50;;;;;;;28.20;3.80;;;;;;;;;;4989981;28;20109;-89
2023/12/20 11:27:15;;;;;;;11.47;2.87;;;;;;;;;;4989271;28;20061;-87
2023/12/20 11:29:40;;;;;;;21.13;2.80;;;;;;;;;;4992099;28;20026;-88
2023/12/20 11:32:24;;;;;;;12.35;2.28;;;;;;;;;;5001587;28;20492;-88
2023/12/20 11:34:50;;;;;;;22.30;3.07;;;;;;;;;;4990568;28;20526;-88
2023/12/20 11:37:15;;;;;;;23.23;2.93;;;;;;;;;;4990726;28;20975;-88
2023/12/20 11:39:42;;;;;;;25.77;3.60;;;;;;;;;;4990012;28;20021;-88
2023/12/20 11:42:09;;;;;;;22.63;3.63;;;;;;;;;;4989049;28;20077;-87
2023/12/20 11:44:36;;;;;;;23.00;3.58;;;;;;;;;;4996571;28;20021;-86
2023/12/20 11:47:01;;;;;;;25.15;3.63;;;;;;;;;;4990360;28;20117;-87
2023/12/20 11:49:29;;;;;;;19.83;2.90;;;;;;;;;;4991022;28;20529;-87
2023/12/20 11:51:54;;;;;;;30.15;3.47;;;;;;;;;;4989528;28;20465;-86
2023/12/20 11:54:19;;;;;;;23.17;3.30;;;;;;;;;;4986829;28;20042;-87
2023/12/20 11:56:45;;;;;;;23.80;3.90;;;;;;;;;;4989304;28;20119;-87
2023/12/20 11:59:12;;;;;;;29.83;3.60;;;;;;;;;;5009184;28;20030;-86
2023/12/20 12:01:37;;;;;;;24.65;3.30;;;;;;;;;;4990512;28;20026;-86
2023/12/20 12:04:05;;;;;;;26.83;3.50;;;;;;;;;;5007402;28;20037;-86
2023/12/20 12:06:30;;;;;;;26.00;3.58;;;;;;;;;;5009775;28;20752;-86
2023/12/20 12:08:56;;;;;;;16.77;3.00;;;;;;;;;;5009800;28;20026;-86
2023/12/20 12:11:21;;;;;;;20.67;3.10;;;;;;;;;;5009944;28;20018;-89
2023/12/20 12:16:22;;;;;;;23.20;4.20;;;;;;;;;;5635626;23;20193;-87
2023/12/20 12:18:57;;;;;;;22.93;3.03;;;;;;;;;;5044034;28;20315;-87
2023/12/20 12:21:23;;;;;;;23.95;3.80;;;;;;;;;;5029589;28;20527;-86
2023/12/20 12:23:48;;;;;;;21.97;3.60;;;;;;;;;;5014209;28;20112;-89
2023/12/20 12:26:14;;;;;;;22.87;2.93;;;;;;;;;;5029234;28;20021;-88
2023/12/20 12:28:42;;;;;;;23.88;3.65;;;;;;;;;;5029231;28;20016;-89
2023/12/20 12:31:07;;;;;;;30.30;4.07;;;;;;;;;;5029861;28;20056;-93
2023/12/20 12:33:33;;;;;;;24.25;3.70;;;;;;;;;;5029535;28;20095;-89
2023/12/20 12:35:59;;;;;;;28.00;3.37;;;;;;;;;;5032392;28;20141;-90
2023/12/20 12:38:24;;;;;;;25.17;3.50;;;;;;;;;;5032245;28;20441;-88
2023/12/20 12:40:50;;;;;;;21.80;3.23;;;;;;;;;;5032800;28;20017;-88
2023/12/20 12:43:15;;;;;;;21.33;3.33;;;;;;;;;;5033833;28;20014;-89
2023/12/20 12:45:40;;;;;;;26.83;3.60;;;;;;;;;;5033203;28;20021;-90
2023/12/20 12:48:06;;;;;;;19.07;3.30;;;;;;;;;;5031904;28;20333;-89
2023/12/20 12:50:31;;;;;;;21.67;3.58;;;;;;;;;;5030659;28;20040;-90
2023/12/20 12:52:56;;;;;;;24.90;3.73;;;;;;;;;;5028207;28;20446;-89
2023/12/20 12:55:21;;;;;;;22.77;3.30;;;;;;;;;;5032934;28;20040;-88
2023/12/20 12:57:47;;;;;;;25.60;4.10;;;;;;;;;;5031238;28;20018;-88
2023/12/20 13:00:12;;;;;;;16.77;3.03;;;;;;;;;;5021870;28;20037;-88
2023/12/20 13:02:37;;;;;;;29.83;4.00;;;;;;;;;;5032994;28;20021;-89
2023/12/20 13:05:04;;;;;;;32.53;3.78;;;;;;;;;;5033435;28;20025;-88
2023/12/20 13:07:29;;;;;;;20.43;3.30;;;;;;;;;;5015419;28;20469;-89
2023/12/20 13:09:54;;;;;;;24.97;3.70;;;;;;;;;;5030456;28;20028;-88
2023/12/20 13:12:21;;;;;;;22.30;4.67;;;;;;;;;;5033839;28;20294;-89
2023/12/20 13:14:47;;;;;;;27.30;3.67;;;;;;;;;;5040026;28;20021;-87
2023/12/20 13:17:12;;;;;;;25.93;4.77;;;;;;;;;;5037646;28;20351;-88
2023/12/20 13:19:37;;;;;;;13.13;3.87;;;;;;;;;;5033441;28;20108;-87
2023/12/20 13:22:02;;;;;;;24.97;4.17;;;;;;;;;;5035563;28;20022;-87
2023/12/20 13:24:29;;;;;;;24.10;4.00;;;;;;;;;;5015934;28;20100;-87
2023/12/20 13:26:54;;;;;;;25.05;4.20;;;;;;;;;;5016237;28;20037;-87
2023/12/20 13:29:19;;;;;;;26.03;4.63;;;;;;;;;;5036609;28;20018;-87
2023/12/20 13:31:44;;;;;;;20.70;4.40;;;;;;;;;;5035253;28;20060;-89
2023/12/20 13:34:09;;;;;;;27.07;4.13;;;;;;;;;;5018373;28;20045;-87
2023/12/20 13:36:36;;;;;;;26.27;4.47;;;;;;;;;;5014491;28;20036;-88
2023/12/20 13:39:02;;;;;;;23.48;4.35;;;;;;;;;;4997494;28;20437;-87
2023/12/20 13:41:28;;;;;;;24.25;4.47;;;;;;;;;;4989371;28;20022;-87
2023/12/20 13:43:54;;;;;;;22.67;4.57;;;;;;;;;;5025557;28;20112;-87
2023/12/20 13:46:19;;;;;;;17.08;4.32;;;;;;;;;;5032245;28;20056;-88
2023/12/20 13:48:44;;;;;;;17.77;4.27;;;;;;;;;;5032015;28;20419;-88
2023/12/20 13:51:10;;;;;;;23.87;3.73;;;;;;;;;;5014180;28;20017;-88
2023/12/20 13:53:35;;;;;;;27.70;4.37;;;;;;;;;;5031263;28;20040;-88
2023/12/20 13:56:00;;;;;;;20.70;5.05;;;;;;;;;;5031971;28;20036;-87
2023/12/20 13:58:26;;;;;;;26.03;4.80;;;;;;;;;;5015815;28;20108;-88
2023/12/20 14:00:51;;;;;;;24.50;5.07;;;;;;;;;;5035193;28;20025;-88
2023/12/20 14:05:51;;;;;;;24.30;5.18;;;;;;;;;;5103689;23;20410;-88
2023/12/20 14:08:16;;;;;;;24.30;5.27;;;;;;;;;;5011733;28;20029;-88
2023/12/20 14:10:42;;;;;;;21.90;4.50;;;;;;;;;;5010020;28;20018;-88
2023/12/20 14:13:07;;;;;;;26.57;5.03;;;;;;;;;;5028487;28;20021;-88
2023/12/20 14:15:36;;;;;;;21.33;4.93;;;;;;;;;;5013647;28;20026;-88
2023/12/20 14:18:02;;;;;;;28.17;4.53;;;;;;;;;;5031555;28;20029;-89
2023/12/20 14:20:29;;;;;;;21.38;5.45;;;;;;;;;;5031613;28;20113;-88
2023/12/20 14:22:55;;;;;;;24.70;4.70;;;;;;;;;;5029236;28;20089;-87
2023/12/20 14:25:20;;;;;;;23.20;4.43;;;;;;;;;;5032157;28;20065;-88
2023/12/20 14:27:46;;;;;;;23.23;4.50;;;;;;;;;;5030810;28;20454;-88
2023/12/20 14:30:13;;;;;;;23.38;4.40;;;;;;;;;;5014010;28;20460;-87
2023/12/20 14:32:39;;;;;;;22.75;4.85;;;;;;;;;;5012881;28;20010;-88
2023/12/20 14:35:05;;;;;;;30.70;4.57;;;;;;;;;;5031265;28;20103;-88
2023/12/20 14:37:30;;;;;;;23.38;4.95;;;;;;;;;;5025886;28;20658;-87
2023/12/20 14:39:58;;;;;;;26.60;4.60;;;;;;;;;;5020974;28;20029;-88
2023/12/20 14:42:25;;;;;;;22.08;4.78;;;;;;;;;;5013333;28;20017;-88
2023/12/20 14:44:52;;;;;;;21.73;4.60;;;;;;;;;;5031966;28;20647;-88
2023/12/20 14:47:17;;;;;;;29.45;5.22;;;;;;;;;;5013170;28;20021;-88
2023/12/20 14:49:43;;;;;;;25.23;4.50;;;;;;;;;;5031291;28;20044;-88
2023/12/20 14:52:11;;;;;;;22.02;5.85;;;;;;;;;;5030539;28;20029;-88
2023/12/20 14:54:37;;;;;;;15.18;5.13;;;;;;;;;;5038480;28;20079;-88
2023/12/20 14:57:02;;;;;;;22.50;5.63;;;;;;;;;;5040647;28;20029;-87
2023/12/20 14:59:27;;;;;;;22.90;5.80;;;;;;;;;;5012497;28;20044;-87
2023/12/20 15:01:53;;;;;;;25.80;5.73;;;;;;;;;;5013008;28;20040;-88
2023/12/20 15:04:18;;;;;;;23.97;5.50;;;;;;;;;;5013554;28;20025;-89
2023/12/20 15:06:44;;;;;;;27.48;5.88;;;;;;;;;;5030824;28;20134;-89
2023/12/20 15:09:10;;;;;;;18.95;4.47;;;;;;;;;;5030232;28;20014;-87
2023/12/20 15:11:35;;;;;;;22.10;5.17;;;;;;;;;;5025575;28;20025;-88
2023/12/20 15:14:00;;;;;;;19.50;5.10;;;;;;;;;;5030745;28;20062;-87
2023/12/20 15:16:26;;;;;;;26.10;4.70;;;;;;;;;;5028483;28;20021;-87
2023/12/20 15:18:51;;;;;;;18.33;4.50;;;;;;;;;;5030163;28;20061;-88
2023/12/20 15:21:17;;;;;;;18.70;4.82;;;;;;;;;;5027951;28;20021;-88
2023/12/20 15:23:52;;;;;;;18.53;4.30;;;;;;;;;;5030407;28;20025;-89
2023/12/20 15:26:17;;;;;;;26.42;4.43;;;;;;;;;;5030581;28;20021;-86
2023/12/20 15:28:43;;;;;;;25.13;4.87;;;;;;;;;;5030994;28;20026;-89
2023/12/20 15:31:08;;;;;;;20.98;4.38;;;;;;;;;;5036479;28;20084;-89
2023/12/20 15:33:33;;;;;;;24.13;4.77;;;;;;;;;;5030607;28;20022;-89
2023/12/20 15:35:58;;;;;;;22.70;4.50;;;;;;;;;;5030021;28;20029;-86
2023/12/20 15:38:24;;;;;;;23.03;4.70;;;;;;;;;;5031492;28;20508;-87
2023/12/20 15:40:49;;;;;;;28.37;4.83;;;;;;;;;;5027005;28;20021;-87
2023/12/20 15:43:14;;;;;;;19.40;3.97;;;;;;;;;;5029447;28;20062;-87
2023/12/20 15:45:40;;;;;;;18.67;4.90;;;;;;;;;;5025553;28;20500;-89
2023/12/20 15:48:05;;;;;;;32.60;4.40;;;;;;;;;;5025894;28;20017;-88
2023/12/20 15:50:30;;;;;;;25.10;4.87;;;;;;;;;;5029364;28;20603;-88
2023/12/20 15:52:55;;;;;;;17.13;4.70;;;;;;;;;;5028721;28;20013;-88
2023/12/20 15:55:21;;;;;;;23.70;4.73;;;;;;;;;;5030074;28;20761;-87
2023/12/20 15:57:46;;;;;;;26.97;4.73;;;;;;;;;;5034068;28;20029;-90